Strona główna
METAR-TAF:

METAR-TAF

Lotnisko :

Port lotniczy Buochs

Buochs, Szwajcaria

Szerokość geograficzna: 46-58-28N, Długość geograficzna: 8-23-49E, wysokość: 449 m

Aktualna obserwacja pogody

Raport powstał 11 minut temu, godzina 07:20 UTC
Wiatr 4 kt od zachodnio-południowy zachód
Temperatura 15°C
Wilgotność 88%
Ciśnienie 1000 hPa
Widzialność 10 km lub więcej
Zachmurzenie całkowite na wysokości 6500 ft
słaby deszcz

METAR: LSZC 040720Z AUTO 24004KT 9999 -RA OVC065 15/13 Q1000 REDZ

czas: 09:31 (07:31 UTC)

Prognoza

Raport powstał 2 godziny i 6 minut temu, godzina 05:25 UTC
Prognoza ważna od 04 godzina 06 UTC do 04 godzina 15 UTC
Wiatr 5 kt od zachodnio-południowy zachód
Widzialność 10 km lub więcej
Rozproszone chmury na wysokości 2000 ft
Przerywane chmury na wysokości 4000 ft
słaby deszcz

TAF: LSZC 040525Z 0406/0415 25005KT 9999 -RA SCT020 BKN040

Obserwacja i prognoza pogody dla ponad 4000 lotnisk (raport METAR i TAF).

Dostępne stacje oznaczono żółtymi i czerwonymi punktami na mapie.

Najedź kursorem aby zobaczyć nazwę stacji.

Kliknij aby zobaczyć obserwacje i prognozy pogody.

Aby zmienić mapę: kliknij na zielony przycisk z czarnym krzyżykiem, aby powiększyć; na zielony przycisk z myślnikiem, aby pomniejszyć; na zielone strzałki, aby przejść do map sąsiednich.


METAR-TAF: